sensor_id;sensor_type;location;lat;lon;timestamp;temperature;humidity
23237;DHT22;11787;52.018;8.570;2023-08-01T00:02:03;16.80;99.90
23237;DHT22;11787;52.018;8.570;2023-08-01T00:04:29;16.70;99.90
23237;DHT22;11787;52.018;8.570;2023-08-01T00:06:54;16.70;99.90
23237;DHT22;11787;52.018;8.570;2023-08-01T00:09:20;16.70;99.90
23237;DHT22;11787;52.018;8.570;2023-08-01T00:11:46;16.70;99.90
23237;DHT22;11787;52.018;8.570;2023-08-01T00:14:11;16.60;99.90
23237;DHT22;11787;52.018;8.570;2023-08-01T00:16:37;16.60;99.90
23237;DHT22;11787;52.018;8.570;2023-08-01T00:19:02;16.60;99.90
23237;DHT22;11787;52.018;8.570;2023-08-01T00:21:28;16.50;99.90
23237;DHT22;11787;52.018;8.570;2023-08-01T00:23:56;16.50;99.90
23237;DHT22;11787;52.018;8.570;2023-08-01T00:26:21;16.50;99.90
23237;DHT22;11787;52.018;8.570;2023-08-01T00:28:46;16.50;99.90
23237;DHT22;11787;52.018;8.570;2023-08-01T00:31:12;16.50;99.90
23237;DHT22;11787;52.018;8.570;2023-08-01T00:33:37;16.50;99.90
23237;DHT22;11787;52.018;8.570;2023-08-01T00:36:03;16.40;99.90
23237;DHT22;11787;52.018;8.570;2023-08-01T00:38:34;16.40;99.90
23237;DHT22;11787;52.018;8.570;2023-08-01T00:40:59;16.40;99.90
23237;DHT22;11787;52.018;8.570;2023-08-01T00:43:25;16.30;99.90
23237;DHT22;11787;52.018;8.570;2023-08-01T00:45:50;16.30;99.90
23237;DHT22;11787;52.018;8.570;2023-08-01T00:48:16;16.30;99.90
23237;DHT22;11787;52.018;8.570;2023-08-01T00:50:44;16.40;99.90
23237;DHT22;11787;52.018;8.570;2023-08-01T00:53:09;16.30;99.90
23237;DHT22;11787;52.018;8.570;2023-08-01T00:55:35;16.30;99.90
23237;DHT22;11787;52.018;8.570;2023-08-01T00:58:00;16.30;99.90
23237;DHT22;11787;52.018;8.570;2023-08-01T01:00:26;16.20;99.90
23237;DHT22;11787;52.018;8.570;2023-08-01T01:02:52;16.20;99.90
23237;DHT22;11787;52.018;8.570;2023-08-01T01:05:17;16.20;99.90
23237;DHT22;11787;52.018;8.570;2023-08-01T01:07:43;16.20;99.90
23237;DHT22;11787;52.018;8.570;2023-08-01T01:10:09;16.10;99.90
23237;DHT22;11787;52.018;8.570;2023-08-01T01:12:34;16.10;99.90
23237;DHT22;11787;52.018;8.570;2023-08-01T01:15:00;16.10;99.90
23237;DHT22;11787;52.018;8.570;2023-08-01T01:17:25;16.10;99.90
23237;DHT22;11787;52.018;8.570;2023-08-01T01:19:51;16.10;99.90
23237;DHT22;11787;52.018;8.570;2023-08-01T01:22:16;16.10;99.90
23237;DHT22;11787;52.018;8.570;2023-08-01T01:24:42;16.10;99.90
23237;DHT22;11787;52.018;8.570;2023-08-01T01:27:07;16.00;99.90
23237;DHT22;11787;52.018;8.570;2023-08-01T01:29:34;16.10;99.90
23237;DHT22;11787;52.018;8.570;2023-08-01T01:32:00;16.10;99.90
23237;DHT22;11787;52.018;8.570;2023-08-01T01:34:26;16.10;99.90
23237;DHT22;11787;52.018;8.570;2023-08-01T01:36:52;16.00;99.90
23237;DHT22;11787;52.018;8.570;2023-08-01T01:39:17;16.00;99.90
23237;DHT22;11787;52.018;8.570;2023-08-01T01:41:43;16.00;99.90
23237;DHT22;11787;52.018;8.570;2023-08-01T01:44:08;16.00;99.90
23237;DHT22;11787;52.018;8.570;2023-08-01T01:46:34;16.10;99.90
23237;DHT22;11787;52.018;8.570;2023-08-01T01:48:59;16.00;99.90
23237;DHT22;11787;52.018;8.570;2023-08-01T01:51:26;16.00;99.90
23237;DHT22;11787;52.018;8.570;2023-08-01T01:53:51;15.90;99.90
23237;DHT22;11787;52.018;8.570;2023-08-01T01:56:17;16.00;99.90
23237;DHT22;11787;52.018;8.570;2023-08-01T01:58:42;16.00;99.90
23237;DHT22;11787;52.018;8.570;2023-08-01T02:01:08;16.00;99.90
23237;DHT22;11787;52.018;8.570;2023-08-01T02:03:33;16.00;99.90
23237;DHT22;11787;52.018;8.570;2023-08-01T02:05:59;16.00;99.90
23237;DHT22;11787;52.018;8.570;2023-08-01T02:08:24;16.10;99.90
23237;DHT22;11787;52.018;8.570;2023-08-01T02:10:49;16.10;99.90
23237;DHT22;11787;52.018;8.570;2023-08-01T02:13:15;16.10;99.90
23237;DHT22;11787;52.018;8.570;2023-08-01T02:15:40;16.00;99.90
23237;DHT22;11787;52.018;8.570;2023-08-01T02:18:06;16.00;99.90
23237;DHT22;11787;52.018;8.570;2023-08-01T02:20:31;16.00;99.90
23237;DHT22;11787;52.018;8.570;2023-08-01T02:22:57;16.00;99.90
23237;DHT22;11787;52.018;8.570;2023-08-01T02:25:22;16.00;99.90
23237;DHT22;11787;52.018;8.570;2023-08-01T02:27:48;16.00;99.90
23237;DHT22;11787;52.018;8.570;2023-08-01T02:30:13;16.00;99.90
23237;DHT22;11787;52.018;8.570;2023-08-01T02:32:39;16.00;99.90
23237;DHT22;11787;52.018;8.570;2023-08-01T02:35:04;16.00;99.90
23237;DHT22;11787;52.018;8.570;2023-08-01T02:37:30;15.90;99.90
23237;DHT22;11787;52.018;8.570;2023-08-01T02:39:55;15.90;99.90
23237;DHT22;11787;52.018;8.570;2023-08-01T02:42:21;16.00;99.90
23237;DHT22;11787;52.018;8.570;2023-08-01T02:44:46;16.10;99.90
23237;DHT22;11787;52.018;8.570;2023-08-01T02:47:12;16.10;99.90
23237;DHT22;11787;52.018;8.570;2023-08-01T02:49:37;16.10;99.90
23237;DHT22;11787;52.018;8.570;2023-08-01T02:52:03;16.10;99.90
23237;DHT22;11787;52.018;8.570;2023-08-01T02:54:28;16.10;99.90
23237;DHT22;11787;52.018;8.570;2023-08-01T02:56:54;16.20;99.90
23237;DHT22;11787;52.018;8.570;2023-08-01T02:59:19;16.20;99.90
23237;DHT22;11787;52.018;8.570;2023-08-01T03:01:45;16.20;99.90
23237;DHT22;11787;52.018;8.570;2023-08-01T03:04:10;16.20;99.90
23237;DHT22;11787;52.018;8.570;2023-08-01T03:06:40;16.20;99.90
23237;DHT22;11787;52.018;8.570;2023-08-01T03:09:05;16.20;99.90
23237;DHT22;11787;52.018;8.570;2023-08-01T03:11:33;16.20;99.90
23237;DHT22;11787;52.018;8.570;2023-08-01T03:14:00;16.20;99.90
23237;DHT22;11787;52.018;8.570;2023-08-01T03:16:25;16.10;99.90
23237;DHT22;11787;52.018;8.570;2023-08-01T03:18:51;16.10;99.90
23237;DHT22;11787;52.018;8.570;2023-08-01T03:21:16;16.10;99.90
23237;DHT22;11787;52.018;8.570;2023-08-01T03:23:42;16.10;99.90
23237;DHT22;11787;52.018;8.570;2023-08-01T03:26:07;16.10;99.90
23237;DHT22;11787;52.018;8.570;2023-08-01T03:28:33;16.00;99.90
23237;DHT22;11787;52.018;8.570;2023-08-01T03:30:58;16.10;99.90
23237;DHT22;11787;52.018;8.570;2023-08-01T03:33:24;16.00;99.90
23237;DHT22;11787;52.018;8.570;2023-08-01T03:35:49;16.00;99.90
23237;DHT22;11787;52.018;8.570;2023-08-01T03:38:15;16.00;99.90
23237;DHT22;11787;52.018;8.570;2023-08-01T03:40:40;16.00;99.90
23237;DHT22;11787;52.018;8.570;2023-08-01T03:43:06;16.00;99.90
23237;DHT22;11787;52.018;8.570;2023-08-01T03:45:32;16.10;99.90
23237;DHT22;11787;52.018;8.570;2023-08-01T03:47:58;16.10;99.90
23237;DHT22;11787;52.018;8.570;2023-08-01T03:50:23;16.00;99.90
23237;DHT22;11787;52.018;8.570;2023-08-01T03:52:49;16.00;99.90
23237;DHT22;11787;52.018;8.570;2023-08-01T03:55:14;16.00;99.90
23237;DHT22;11787;52.018;8.570;2023-08-01T03:57:40;16.00;99.90
23237;DHT22;11787;52.018;8.570;2023-08-01T04:00:06;16.00;99.90
23237;DHT22;11787;52.018;8.570;2023-08-01T04:02:31;16.00;99.90
23237;DHT22;11787;52.018;8.570;2023-08-01T04:04:57;16.00;99.90
23237;DHT22;11787;52.018;8.570;2023-08-01T04:07:22;16.00;99.90
23237;DHT22;11787;52.018;8.570;2023-08-01T04:09:48;16.00;99.90
23237;DHT22;11787;52.018;8.570;2023-08-01T04:12:13;15.90;99.90
23237;DHT22;11787;52.018;8.570;2023-08-01T04:14:39;15.90;99.90
23237;DHT22;11787;52.018;8.570;2023-08-01T04:17:05;16.00;99.90
23237;DHT22;11787;52.018;8.570;2023-08-01T04:19:30;15.90;99.90
23237;DHT22;11787;52.018;8.570;2023-08-01T04:21:55;15.90;99.90
23237;DHT22;11787;52.018;8.570;2023-08-01T04:24:21;16.00;99.90
23237;DHT22;11787;52.018;8.570;2023-08-01T04:26:50;15.90;99.90
23237;DHT22;11787;52.018;8.570;2023-08-01T04:29:16;15.90;99.90
23237;DHT22;11787;52.018;8.570;2023-08-01T04:31:43;15.90;99.90
23237;DHT22;11787;52.018;8.570;2023-08-01T04:34:08;15.90;99.90
23237;DHT22;11787;52.018;8.570;2023-08-01T04:36:34;15.90;99.90
23237;DHT22;11787;52.018;8.570;2023-08-01T04:38:59;15.80;99.90
23237;DHT22;11787;52.018;8.570;2023-08-01T04:41:25;15.80;99.90
23237;DHT22;11787;52.018;8.570;2023-08-01T04:43:50;15.80;99.90
23237;DHT22;11787;52.018;8.570;2023-08-01T04:46:15;15.80;99.90
23237;DHT22;11787;52.018;8.570;2023-08-01T04:48:41;15.80;99.90
23237;DHT22;11787;52.018;8.570;2023-08-01T04:51:06;15.80;99.90
23237;DHT22;11787;52.018;8.570;2023-08-01T04:53:32;15.80;99.90
23237;DHT22;11787;52.018;8.570;2023-08-01T04:55:57;15.80;99.90
23237;DHT22;11787;52.018;8.570;2023-08-01T04:58:23;15.80;99.90
23237;DHT22;11787;52.018;8.570;2023-08-01T05:00:48;15.80;99.90
23237;DHT22;11787;52.018;8.570;2023-08-01T05:03:14;15.80;99.90
23237;DHT22;11787;52.018;8.570;2023-08-01T05:05:39;15.80;99.90
23237;DHT22;11787;52.018;8.570;2023-08-01T05:08:04;15.80;99.90
23237;DHT22;11787;52.018;8.570;2023-08-01T05:10:30;15.90;99.90
23237;DHT22;11787;52.018;8.570;2023-08-01T05:12:55;15.90;99.90
23237;DHT22;11787;52.018;8.570;2023-08-01T05:15:21;15.90;99.90
23237;DHT22;11787;52.018;8.570;2023-08-01T05:17:46;16.00;99.90
23237;DHT22;11787;52.018;8.570;2023-08-01T05:20:12;15.90;99.90
23237;DHT22;11787;52.018;8.570;2023-08-01T05:22:37;15.90;99.90
23237;DHT22;11787;52.018;8.570;2023-08-01T05:25:03;15.90;99.90
23237;DHT22;11787;52.018;8.570;2023-08-01T05:27:30;15.90;99.90
23237;DHT22;11787;52.018;8.570;2023-08-01T05:29:55;15.90;99.90
23237;DHT22;11787;52.018;8.570;2023-08-01T05:32:21;15.90;99.90
23237;DHT22;11787;52.018;8.570;2023-08-01T05:34:46;15.90;99.90
23237;DHT22;11787;52.018;8.570;2023-08-01T05:37:12;15.90;99.90
23237;DHT22;11787;52.018;8.570;2023-08-01T05:39:37;15.90;99.90
23237;DHT22;11787;52.018;8.570;2023-08-01T05:42:03;15.90;99.90
23237;DHT22;11787;52.018;8.570;2023-08-01T05:44:33;15.90;99.90
23237;DHT22;11787;52.018;8.570;2023-08-01T05:46:59;16.00;99.90
23237;DHT22;11787;52.018;8.570;2023-08-01T05:49:24;15.90;99.90
23237;DHT22;11787;52.018;8.570;2023-08-01T05:51:50;15.90;99.90
23237;DHT22;11787;52.018;8.570;2023-08-01T05:54:15;15.90;99.90
23237;DHT22;11787;52.018;8.570;2023-08-01T05:56:41;15.90;99.90
23237;DHT22;11787;52.018;8.570;2023-08-01T05:59:06;16.00;99.90
23237;DHT22;11787;52.018;8.570;2023-08-01T06:01:32;15.90;99.90
23237;DHT22;11787;52.018;8.570;2023-08-01T06:03:57;15.90;99.90
23237;DHT22;11787;52.018;8.570;2023-08-01T06:06:23;15.90;99.90
23237;DHT22;11787;52.018;8.570;2023-08-01T06:08:48;15.80;99.90
23237;DHT22;11787;52.018;8.570;2023-08-01T06:11:14;15.80;99.90
23237;DHT22;11787;52.018;8.570;2023-08-01T06:13:39;15.90;99.90
23237;DHT22;11787;52.018;8.570;2023-08-01T06:16:05;15.90;99.90
23237;DHT22;11787;52.018;8.570;2023-08-01T06:18:30;15.90;99.90
23237;DHT22;11787;52.018;8.570;2023-08-01T06:20:56;15.90;99.90
23237;DHT22;11787;52.018;8.570;2023-08-01T06:23:21;15.90;99.90
23237;DHT22;11787;52.018;8.570;2023-08-01T06:25:47;15.90;99.90
23237;DHT22;11787;52.018;8.570;2023-08-01T06:28:12;15.90;99.90
23237;DHT22;11787;52.018;8.570;2023-08-01T06:30:38;15.90;99.90
23237;DHT22;11787;52.018;8.570;2023-08-01T06:33:03;15.90;99.90
23237;DHT22;11787;52.018;8.570;2023-08-01T06:35:29;15.90;99.90
23237;DHT22;11787;52.018;8.570;2023-08-01T06:37:54;16.00;99.90
23237;DHT22;11787;52.018;8.570;2023-08-01T06:40:20;16.00;99.90
23237;DHT22;11787;52.018;8.570;2023-08-01T06:42:45;16.00;99.90
23237;DHT22;11787;52.018;8.570;2023-08-01T06:45:11;16.00;99.90
23237;DHT22;11787;52.018;8.570;2023-08-01T06:47:36;15.90;99.90
23237;DHT22;11787;52.018;8.570;2023-08-01T06:50:02;15.90;99.90
23237;DHT22;11787;52.018;8.570;2023-08-01T06:52:28;15.90;99.90
23237;DHT22;11787;52.018;8.570;2023-08-01T06:54:53;16.00;99.90
23237;DHT22;11787;52.018;8.570;2023-08-01T06:57:18;16.10;99.90
23237;DHT22;11787;52.018;8.570;2023-08-01T06:59:44;16.20;99.90
23237;DHT22;11787;52.018;8.570;2023-08-01T07:02:09;16.20;99.90
23237;DHT22;11787;52.018;8.570;2023-08-01T07:04:36;16.20;99.90
23237;DHT22;11787;52.018;8.570;2023-08-01T07:07:03;16.20;99.90
23237;DHT22;11787;52.018;8.570;2023-08-01T07:09:28;16.20;99.90
23237;DHT22;11787;52.018;8.570;2023-08-01T07:11:54;16.20;99.90
23237;DHT22;11787;52.018;8.570;2023-08-01T07:14:20;16.30;99.90
23237;DHT22;11787;52.018;8.570;2023-08-01T07:16:45;16.30;99.90
23237;DHT22;11787;52.018;8.570;2023-08-01T07:19:11;16.30;99.90
23237;DHT22;11787;52.018;8.570;2023-08-01T07:21:36;16.20;99.90
23237;DHT22;11787;52.018;8.570;2023-08-01T07:24:02;16.10;99.90
23237;DHT22;11787;52.018;8.570;2023-08-01T07:26:27;16.10;99.90
23237;DHT22;11787;52.018;8.570;2023-08-01T07:28:54;16.20;99.90
23237;DHT22;11787;52.018;8.570;2023-08-01T07:31:20;16.30;99.90
23237;DHT22;11787;52.018;8.570;2023-08-01T07:33:45;16.20;99.90
23237;DHT22;11787;52.018;8.570;2023-08-01T07:36:10;16.30;99.90
23237;DHT22;11787;52.018;8.570;2023-08-01T07:38:36;16.20;99.90
23237;DHT22;11787;52.018;8.570;2023-08-01T07:41:02;16.20;99.90
23237;DHT22;11787;52.018;8.570;2023-08-01T07:43:29;16.30;99.90
23237;DHT22;11787;52.018;8.570;2023-08-01T07:45:57;16.40;99.90
23237;DHT22;11787;52.018;8.570;2023-08-01T07:48:23;16.50;99.90
23237;DHT22;11787;52.018;8.570;2023-08-01T07:50:48;16.50;99.90
23237;DHT22;11787;52.018;8.570;2023-08-01T07:53:14;16.60;99.90
23237;DHT22;11787;52.018;8.570;2023-08-01T07:55:39;16.60;99.90
23237;DHT22;11787;52.018;8.570;2023-08-01T07:58:05;16.50;99.90
23237;DHT22;11787;52.018;8.570;2023-08-01T08:00:30;16.60;99.90
23237;DHT22;11787;52.018;8.570;2023-08-01T08:02:56;16.70;99.90
23237;DHT22;11787;52.018;8.570;2023-08-01T08:05:21;16.70;99.90
23237;DHT22;11787;52.018;8.570;2023-08-01T08:07:47;16.70;99.90
23237;DHT22;11787;52.018;8.570;2023-08-01T08:10:12;16.70;99.90
23237;DHT22;11787;52.018;8.570;2023-08-01T08:12:38;16.80;99.90
23237;DHT22;11787;52.018;8.570;2023-08-01T08:15:03;16.90;99.90
23237;DHT22;11787;52.018;8.570;2023-08-01T08:17:29;16.90;99.90
23237;DHT22;11787;52.018;8.570;2023-08-01T08:19:54;16.90;99.90
23237;DHT22;11787;52.018;8.570;2023-08-01T08:22:20;17.00;99.90
23237;DHT22;11787;52.018;8.570;2023-08-01T08:24:45;17.30;99.90
23237;DHT22;11787;52.018;8.570;2023-08-01T08:27:11;17.40;99.90
23237;DHT22;11787;52.018;8.570;2023-08-01T08:29:36;17.30;99.90
23237;DHT22;11787;52.018;8.570;2023-08-01T08:32:02;17.40;99.90
23237;DHT22;11787;52.018;8.570;2023-08-01T08:34:28;17.60;99.90
23237;DHT22;11787;52.018;8.570;2023-08-01T08:36:53;17.70;99.90
23237;DHT22;11787;52.018;8.570;2023-08-01T08:39:19;17.50;99.90
23237;DHT22;11787;52.018;8.570;2023-08-01T08:41:51;17.30;99.90
23237;DHT22;11787;52.018;8.570;2023-08-01T08:44:19;17.30;99.90
23237;DHT22;11787;52.018;8.570;2023-08-01T08:46:53;17.30;99.90
23237;DHT22;11787;52.018;8.570;2023-08-01T08:49:20;17.30;99.90
23237;DHT22;11787;52.018;8.570;2023-08-01T08:51:47;17.30;99.90
23237;DHT22;11787;52.018;8.570;2023-08-01T08:54:15;17.20;99.90
23237;DHT22;11787;52.018;8.570;2023-08-01T08:56:41;17.10;99.90
23237;DHT22;11787;52.018;8.570;2023-08-01T08:59:09;17.10;99.90
23237;DHT22;11787;52.018;8.570;2023-08-01T09:01:39;17.00;99.90
23237;DHT22;11787;52.018;8.570;2023-08-01T09:04:05;17.10;99.90
23237;DHT22;11787;52.018;8.570;2023-08-01T09:06:49;17.10;99.90
23237;DHT22;11787;52.018;8.570;2023-08-01T09:09:15;17.00;99.90
23237;DHT22;11787;52.018;8.570;2023-08-01T09:11:46;17.00;99.90
23237;DHT22;11787;52.018;8.570;2023-08-01T09:14:12;16.80;99.90
23237;DHT22;11787;52.018;8.570;2023-08-01T09:16:41;16.80;99.90
23237;DHT22;11787;52.018;8.570;2023-08-01T09:19:07;16.90;99.90
23237;DHT22;11787;52.018;8.570;2023-08-01T09:21:33;17.10;99.90
23237;DHT22;11787;52.018;8.570;2023-08-01T09:24:08;17.40;99.90
23237;DHT22;11787;52.018;8.570;2023-08-01T09:26:34;17.70;99.90
23237;DHT22;11787;52.018;8.570;2023-08-01T09:29:00;17.80;99.90
23237;DHT22;11787;52.018;8.570;2023-08-01T09:31:30;17.60;99.90
23237;DHT22;11787;52.018;8.570;2023-08-01T09:33:56;17.60;99.90
23237;DHT22;11787;52.018;8.570;2023-08-01T09:36:23;17.60;99.90
23237;DHT22;11787;52.018;8.570;2023-08-01T09:38:49;17.80;99.90
23237;DHT22;11787;52.018;8.570;2023-08-01T09:41:18;18.10;99.90
23237;DHT22;11787;52.018;8.570;2023-08-01T09:43:46;18.20;99.90
23237;DHT22;11787;52.018;8.570;2023-08-01T09:46:12;18.00;99.90
23237;DHT22;11787;52.018;8.570;2023-08-01T09:48:39;17.70;99.90
23237;DHT22;11787;52.018;8.570;2023-08-01T09:51:09;17.60;99.90
23237;DHT22;11787;52.018;8.570;2023-08-01T09:53:36;17.40;99.90
23237;DHT22;11787;52.018;8.570;2023-08-01T09:56:11;17.20;99.90
23237;DHT22;11787;52.018;8.570;2023-08-01T09:58:41;17.00;99.90
23237;DHT22;11787;52.018;8.570;2023-08-01T10:01:07;16.90;99.90
23237;DHT22;11787;52.018;8.570;2023-08-01T10:03:33;17.00;99.90
23237;DHT22;11787;52.018;8.570;2023-08-01T10:05:59;17.40;99.90
23237;DHT22;11787;52.018;8.570;2023-08-01T10:08:25;18.00;99.90
23237;DHT22;11787;52.018;8.570;2023-08-01T10:10:51;18.40;99.90
23237;DHT22;11787;52.018;8.570;2023-08-01T10:13:20;18.90;99.90
23237;DHT22;11787;52.018;8.570;2023-08-01T10:15:48;19.30;99.90
23237;DHT22;11787;52.018;8.570;2023-08-01T10:18:14;19.40;99.90
23237;DHT22;11787;52.018;8.570;2023-08-01T10:20:40;19.70;99.90
23237;DHT22;11787;52.018;8.570;2023-08-01T10:23:06;19.60;99.90
23237;DHT22;11787;52.018;8.570;2023-08-01T10:25:32;19.30;99.90
23237;DHT22;11787;52.018;8.570;2023-08-01T10:28:01;19.00;99.90
23237;DHT22;11787;52.018;8.570;2023-08-01T10:30:27;19.00;99.90
23237;DHT22;11787;52.018;8.570;2023-08-01T10:32:54;18.90;99.90
23237;DHT22;11787;52.018;8.570;2023-08-01T10:35:26;18.80;99.90
23237;DHT22;11787;52.018;8.570;2023-08-01T10:38:03;18.50;99.90
23237;DHT22;11787;52.018;8.570;2023-08-01T10:43:00;18.20;99.90
23237;DHT22;11787;52.018;8.570;2023-08-01T10:45:25;18.10;99.90
23237;DHT22;11787;52.018;8.570;2023-08-01T10:47:53;18.10;99.90
23237;DHT22;11787;52.018;8.570;2023-08-01T10:50:18;17.90;99.90
23237;DHT22;11787;52.018;8.570;2023-08-01T10:52:45;17.80;99.90
23237;DHT22;11787;52.018;8.570;2023-08-01T10:55:11;17.80;99.90
23237;DHT22;11787;52.018;8.570;2023-08-01T10:57:38;17.80;99.90
23237;DHT22;11787;52.018;8.570;2023-08-01T11:00:04;18.20;99.90
23237;DHT22;11787;52.018;8.570;2023-08-01T11:02:35;18.70;99.90
23237;DHT22;11787;52.018;8.570;2023-08-01T11:05:04;19.00;99.90
23237;DHT22;11787;52.018;8.570;2023-08-01T11:07:30;19.20;99.90
23237;DHT22;11787;52.018;8.570;2023-08-01T11:10:06;19.20;99.90
23237;DHT22;11787;52.018;8.570;2023-08-01T11:12:36;19.00;99.90
23237;DHT22;11787;52.018;8.570;2023-08-01T11:15:02;19.00;99.90
23237;DHT22;11787;52.018;8.570;2023-08-01T11:17:28;19.10;99.90
23237;DHT22;11787;52.018;8.570;2023-08-01T11:20:00;19.10;99.90
23237;DHT22;11787;52.018;8.570;2023-08-01T11:22:25;19.00;99.90
23237;DHT22;11787;52.018;8.570;2023-08-01T11:24:51;18.90;99.90
23237;DHT22;11787;52.018;8.570;2023-08-01T11:27:16;18.70;99.90
23237;DHT22;11787;52.018;8.570;2023-08-01T11:29:42;18.60;99.90
23237;DHT22;11787;52.018;8.570;2023-08-01T11:32:07;18.40;99.90
23237;DHT22;11787;52.018;8.570;2023-08-01T11:34:39;18.40;99.90
23237;DHT22;11787;52.018;8.570;2023-08-01T11:37:06;18.20;99.90
23237;DHT22;11787;52.018;8.570;2023-08-01T11:39:32;18.00;99.90
23237;DHT22;11787;52.018;8.570;2023-08-01T11:41:57;17.50;99.90
23237;DHT22;11787;52.018;8.570;2023-08-01T11:44:23;17.20;99.90
23237;DHT22;11787;52.018;8.570;2023-08-01T11:46:49;17.00;99.90
23237;DHT22;11787;52.018;8.570;2023-08-01T11:49:15;17.00;99.90
23237;DHT22;11787;52.018;8.570;2023-08-01T11:51:44;17.20;99.90
23237;DHT22;11787;52.018;8.570;2023-08-01T11:54:10;17.50;99.90
23237;DHT22;11787;52.018;8.570;2023-08-01T11:56:37;17.80;99.90
23237;DHT22;11787;52.018;8.570;2023-08-01T11:59:15;17.90;99.90
23237;DHT22;11787;52.018;8.570;2023-08-01T12:01:45;18.10;99.90
23237;DHT22;11787;52.018;8.570;2023-08-01T12:04:11;18.40;99.90
23237;DHT22;11787;52.018;8.570;2023-08-01T12:06:38;18.70;99.90
23237;DHT22;11787;52.018;8.570;2023-08-01T12:09:12;18.90;99.90
23237;DHT22;11787;52.018;8.570;2023-08-01T12:11:39;19.00;99.90
23237;DHT22;11787;52.018;8.570;2023-08-01T12:14:14;19.10;99.90
23237;DHT22;11787;52.018;8.570;2023-08-01T12:16:46;19.20;99.90
23237;DHT22;11787;52.018;8.570;2023-08-01T12:19:18;19.50;99.90
23237;DHT22;11787;52.018;8.570;2023-08-01T12:21:44;19.60;99.90
23237;DHT22;11787;52.018;8.570;2023-08-01T12:24:10;19.50;99.90
23237;DHT22;11787;52.018;8.570;2023-08-01T12:26:35;19.40;99.90
23237;DHT22;11787;52.018;8.570;2023-08-01T12:29:01;19.50;99.90
23237;DHT22;11787;52.018;8.570;2023-08-01T12:31:26;19.90;99.90
23237;DHT22;11787;52.018;8.570;2023-08-01T12:33:52;19.90;99.90
23237;DHT22;11787;52.018;8.570;2023-08-01T12:36:20;19.80;99.90
23237;DHT22;11787;52.018;8.570;2023-08-01T12:38:46;19.90;99.90
23237;DHT22;11787;52.018;8.570;2023-08-01T12:41:11;20.20;99.90
23237;DHT22;11787;52.018;8.570;2023-08-01T12:43:37;20.30;99.90
23237;DHT22;11787;52.018;8.570;2023-08-01T12:46:02;20.20;99.90
23237;DHT22;11787;52.018;8.570;2023-08-01T12:48:28;20.30;99.90
23237;DHT22;11787;52.018;8.570;2023-08-01T12:50:54;20.10;99.90
23237;DHT22;11787;52.018;8.570;2023-08-01T12:53:20;19.70;99.90
23237;DHT22;11787;52.018;8.570;2023-08-01T12:55:46;19.50;99.90
23237;DHT22;11787;52.018;8.570;2023-08-01T12:58:12;18.80;99.90
23237;DHT22;11787;52.018;8.570;2023-08-01T13:00:38;18.60;99.90
23237;DHT22;11787;52.018;8.570;2023-08-01T13:03:04;18.40;99.90
23237;DHT22;11787;52.018;8.570;2023-08-01T13:05:29;18.20;99.90
23237;DHT22;11787;52.018;8.570;2023-08-01T13:07:55;17.50;99.90
23237;DHT22;11787;52.018;8.570;2023-08-01T13:10:20;17.30;99.90
23237;DHT22;11787;52.018;8.570;2023-08-01T13:12:46;17.20;99.90
23237;DHT22;11787;52.018;8.570;2023-08-01T13:15:11;17.20;99.90
23237;DHT22;11787;52.018;8.570;2023-08-01T13:17:38;17.30;99.90
23237;DHT22;11787;52.018;8.570;2023-08-01T13:20:04;17.30;99.90
23237;DHT22;11787;52.018;8.570;2023-08-01T13:22:30;17.30;99.90
23237;DHT22;11787;52.018;8.570;2023-08-01T13:24:55;17.30;99.90
23237;DHT22;11787;52.018;8.570;2023-08-01T13:27:21;17.70;99.90
23237;DHT22;11787;52.018;8.570;2023-08-01T13:29:46;18.00;99.90
23237;DHT22;11787;52.018;8.570;2023-08-01T13:32:12;18.30;99.90
23237;DHT22;11787;52.018;8.570;2023-08-01T13:34:37;18.50;99.90
23237;DHT22;11787;52.018;8.570;2023-08-01T13:37:03;18.80;99.90
23237;DHT22;11787;52.018;8.570;2023-08-01T13:39:29;19.10;99.90
23237;DHT22;11787;52.018;8.570;2023-08-01T13:41:54;19.10;99.90
23237;DHT22;11787;52.018;8.570;2023-08-01T13:44:20;19.20;99.90
23237;DHT22;11787;52.018;8.570;2023-08-01T13:46:45;19.40;99.90
23237;DHT22;11787;52.018;8.570;2023-08-01T13:49:11;19.40;99.90
23237;DHT22;11787;52.018;8.570;2023-08-01T13:51:38;19.30;99.90
23237;DHT22;11787;52.018;8.570;2023-08-01T13:54:03;19.30;99.90
23237;DHT22;11787;52.018;8.570;2023-08-01T13:56:29;19.40;99.90
23237;DHT22;11787;52.018;8.570;2023-08-01T13:58:54;19.40;99.90
23237;DHT22;11787;52.018;8.570;2023-08-01T14:01:20;19.40;99.90
23237;DHT22;11787;52.018;8.570;2023-08-01T14:03:45;19.40;99.90
23237;DHT22;11787;52.018;8.570;2023-08-01T14:06:11;19.30;99.90
23237;DHT22;11787;52.018;8.570;2023-08-01T14:08:37;19.20;99.90
23237;DHT22;11787;52.018;8.570;2023-08-01T14:11:03;19.10;99.90
23237;DHT22;11787;52.018;8.570;2023-08-01T14:13:29;18.80;99.90
23237;DHT22;11787;52.018;8.570;2023-08-01T14:15:55;18.60;99.90
23237;DHT22;11787;52.018;8.570;2023-08-01T14:18:20;18.50;99.90
23237;DHT22;11787;52.018;8.570;2023-08-01T14:20:46;18.50;99.90
23237;DHT22;11787;52.018;8.570;2023-08-01T14:23:11;18.40;99.90
23237;DHT22;11787;52.018;8.570;2023-08-01T14:25:37;18.10;99.90
23237;DHT22;11787;52.018;8.570;2023-08-01T14:28:02;18.00;99.90
23237;DHT22;11787;52.018;8.570;2023-08-01T14:30:28;18.00;99.90
23237;DHT22;11787;52.018;8.570;2023-08-01T14:33:00;18.10;99.90
23237;DHT22;11787;52.018;8.570;2023-08-01T14:35:26;17.90;99.90
23237;DHT22;11787;52.018;8.570;2023-08-01T14:37:51;18.00;99.90
23237;DHT22;11787;52.018;8.570;2023-08-01T14:40:17;18.10;99.90
23237;DHT22;11787;52.018;8.570;2023-08-01T14:42:42;18.30;99.90
23237;DHT22;11787;52.018;8.570;2023-08-01T14:45:08;18.50;99.90
23237;DHT22;11787;52.018;8.570;2023-08-01T14:47:33;18.80;99.90
23237;DHT22;11787;52.018;8.570;2023-08-01T14:49:59;18.90;99.90
23237;DHT22;11787;52.018;8.570;2023-08-01T14:52:25;18.80;99.90
23237;DHT22;11787;52.018;8.570;2023-08-01T14:54:50;18.80;99.90
23237;DHT22;11787;52.018;8.570;2023-08-01T14:57:16;18.70;99.90
23237;DHT22;11787;52.018;8.570;2023-08-01T14:59:41;18.80;99.90
23237;DHT22;11787;52.018;8.570;2023-08-01T15:02:07;18.80;99.90
23237;DHT22;11787;52.018;8.570;2023-08-01T15:04:32;18.90;99.90
23237;DHT22;11787;52.018;8.570;2023-08-01T15:07:00;18.90;99.90
23237;DHT22;11787;52.018;8.570;2023-08-01T15:09:26;18.80;99.90
23237;DHT22;11787;52.018;8.570;2023-08-01T15:11:51;18.70;99.90
23237;DHT22;11787;52.018;8.570;2023-08-01T15:14:17;18.60;99.90
23237;DHT22;11787;52.018;8.570;2023-08-01T15:16:43;18.40;99.90
23237;DHT22;11787;52.018;8.570;2023-08-01T15:19:08;18.30;99.90
23237;DHT22;11787;52.018;8.570;2023-08-01T15:21:33;18.30;99.90
23237;DHT22;11787;52.018;8.570;2023-08-01T15:23:59;18.40;99.90
23237;DHT22;11787;52.018;8.570;2023-08-01T15:26:24;18.40;99.90